createdAt,value
2022-09-25T00:00:02.664Z,100.00
2022-09-25T00:02:32.962Z,100.00
2022-09-25T00:05:02.105Z,100.00
2022-09-25T00:07:31.168Z,100.00
2022-09-25T00:10:00.297Z,100.00
2022-09-25T00:12:29.748Z,100.00
2022-09-25T00:14:58.898Z,100.00
2022-09-25T00:17:28.060Z,100.00
2022-09-25T00:19:57.188Z,100.00
2022-09-25T00:22:27.392Z,100.00
2022-09-25T00:24:56.479Z,100.00
2022-09-25T00:27:25.524Z,100.00
2022-09-25T00:29:54.565Z,100.00
2022-09-25T00:32:23.533Z,100.00
2022-09-25T00:34:52.537Z,100.00
2022-09-25T00:37:22.219Z,100.00
2022-09-25T00:39:51.212Z,100.00
2022-09-25T00:42:24.081Z,100.00
2022-09-25T00:45:08.997Z,100.00
2022-09-25T00:47:50.753Z,100.00
2022-09-25T00:50:37.274Z,100.00
2022-09-25T00:53:23.273Z,100.00
2022-09-25T00:55:53.446Z,100.00
2022-09-25T00:58:25.999Z,100.00
2022-09-25T01:00:55.260Z,100.00
2022-09-25T01:03:25.430Z,100.00
2022-09-25T01:05:58.867Z,100.00
2022-09-25T01:08:34.442Z,100.00
2022-09-25T01:11:07.804Z,100.00
2022-09-25T01:13:40.390Z,100.00
2022-09-25T01:16:21.147Z,100.00
2022-09-25T01:19:08.447Z,100.00
2022-09-25T01:22:01.190Z,100.00
2022-09-25T01:25:10.135Z,100.00
2022-09-25T01:28:16.762Z,100.00
2022-09-25T01:30:53.346Z,100.00
2022-09-25T01:33:31.805Z,100.00
2022-09-25T01:36:30.425Z,100.00
2022-09-25T01:39:10.543Z,100.00
2022-09-25T01:41:49.158Z,100.00
2022-09-25T01:44:32.779Z,100.00
2022-09-25T01:47:11.085Z,100.00
2022-09-25T01:49:46.347Z,100.00
2022-09-25T01:52:31.654Z,100.00
2022-09-25T01:55:13.932Z,100.00
2022-09-25T01:57:58.932Z,100.00
2022-09-25T02:00:28.445Z,100.00
2022-09-25T02:03:07.681Z,100.00
2022-09-25T02:05:53.345Z,100.00
2022-09-25T02:08:31.083Z,100.00
2022-09-25T02:11:05.280Z,100.00
2022-09-25T02:13:42.993Z,100.00
2022-09-25T02:16:18.895Z,100.00
2022-09-25T02:19:07.517Z,100.00
2022-09-25T02:21:52.030Z,100.00
2022-09-25T02:24:59.227Z,100.00
2022-09-25T02:27:30.491Z,100.00
2022-09-25T02:30:00.510Z,100.00
2022-09-25T02:32:34.887Z,100.00
2022-09-25T02:35:05.671Z,100.00
2022-09-25T02:37:35.662Z,100.00
2022-09-25T02:40:06.187Z,100.00
2022-09-25T02:43:13.638Z,100.00
2022-09-25T02:46:20.036Z,100.00
2022-09-25T02:49:11.243Z,100.00
2022-09-25T02:52:02.349Z,100.00
2022-09-25T02:54:37.670Z,100.00
2022-09-25T02:57:10.281Z,100.00
2022-09-25T02:59:42.849Z,100.00
2022-09-25T03:02:14.551Z,100.00
2022-09-25T03:04:49.537Z,100.00
2022-09-25T03:07:20.978Z,100.00
2022-09-25T03:09:54.730Z,100.00
2022-09-25T03:12:24.172Z,100.00
2022-09-25T03:14:53.687Z,100.00
2022-09-25T03:17:24.706Z,100.00
2022-09-25T03:19:54.610Z,100.00
2022-09-25T03:22:25.075Z,100.00
2022-09-25T03:24:55.397Z,100.00
2022-09-25T03:27:27.099Z,100.00
2022-09-25T03:29:56.953Z,100.00
2022-09-25T03:32:27.383Z,100.00
2022-09-25T03:34:57.450Z,100.00
2022-09-25T03:37:27.119Z,100.00
2022-09-25T03:39:57.870Z,100.00
2022-09-25T03:42:29.993Z,100.00
2022-09-25T03:44:59.543Z,100.00
2022-09-25T03:47:30.582Z,100.00
2022-09-25T03:50:00.208Z,100.00
2022-09-25T03:52:29.949Z,100.00
2022-09-25T03:54:59.833Z,100.00
2022-09-25T03:57:29.214Z,100.00
2022-09-25T04:00:02.738Z,100.00
2022-09-25T04:02:42.027Z,100.00
2022-09-25T04:05:13.724Z,99.53
2022-09-25T04:07:43.324Z,99.01
2022-09-25T04:10:12.934Z,97.28
2022-09-25T04:12:45.160Z,98.48
2022-09-25T04:15:14.760Z,97.00
2022-09-25T04:17:44.766Z,96.71
2022-09-25T04:20:15.335Z,97.45
2022-09-25T04:22:46.280Z,96.95
2022-09-25T04:25:22.080Z,97.69
2022-09-25T04:27:56.825Z,95.66
2022-09-25T04:30:28.821Z,95.93
2022-09-25T04:33:18.212Z,95.54
2022-09-25T04:35:48.541Z,95.66
2022-09-25T04:38:18.350Z,95.91
2022-09-25T04:40:48.673Z,95.65
2022-09-25T04:43:21.122Z,95.36
2022-09-25T04:45:50.484Z,93.91
2022-09-25T04:48:20.058Z,93.35
2022-09-25T04:50:54.591Z,94.66
2022-09-25T04:53:24.199Z,93.72
2022-09-25T04:55:58.907Z,94.39
2022-09-25T04:58:28.636Z,93.32
2022-09-25T05:01:02.739Z,93.02
2022-09-25T05:03:33.294Z,91.70
2022-09-25T05:06:04.416Z,93.13
2022-09-25T05:08:34.237Z,92.18
2022-09-25T05:11:05.264Z,91.70
2022-09-25T05:13:34.969Z,93.57
2022-09-25T05:16:04.984Z,91.50
2022-09-25T05:18:36.788Z,90.42
2022-09-25T05:21:07.919Z,89.73
2022-09-25T05:23:37.544Z,91.08
2022-09-25T05:26:07.829Z,89.65
2022-09-25T05:28:39.248Z,88.87
2022-09-25T05:31:09.646Z,89.44
2022-09-25T05:33:39.109Z,87.32
2022-09-25T05:36:10.026Z,86.98
2022-09-25T05:38:41.800Z,86.47
2022-09-25T05:41:12.886Z,88.27
2022-09-25T05:43:51.461Z,88.15
2022-09-25T05:46:22.953Z,87.97
2022-09-25T05:48:53.104Z,88.14
2022-09-25T05:51:22.931Z,88.58
2022-09-25T05:53:55.352Z,88.68
2022-09-25T05:56:29.006Z,87.62
2022-09-25T05:59:00.079Z,87.30
2022-09-25T06:01:30.867Z,86.71
2022-09-25T06:04:01.038Z,85.90
2022-09-25T06:06:33.684Z,86.47
2022-09-25T06:09:04.242Z,86.22
2022-09-25T06:11:34.466Z,88.82
2022-09-25T06:14:07.551Z,87.65
2022-09-25T06:16:38.908Z,87.87
2022-09-25T06:19:10.130Z,87.81
2022-09-25T06:21:41.732Z,87.16
2022-09-25T06:24:12.740Z,87.20
2022-09-25T06:26:42.443Z,87.28
2022-09-25T06:29:12.047Z,88.29
2022-09-25T06:31:41.929Z,89.36
2022-09-25T06:34:13.508Z,89.25
2022-09-25T06:36:43.970Z,89.83
2022-09-25T06:39:13.921Z,89.47
2022-09-25T06:41:43.737Z,88.40
2022-09-25T06:44:14.831Z,87.72
2022-09-25T06:46:46.325Z,87.05
2022-09-25T06:49:17.410Z,86.66
2022-09-25T06:51:48.066Z,86.94
2022-09-25T06:54:18.777Z,87.03
2022-09-25T06:56:52.732Z,86.01
2022-09-25T06:59:34.557Z,86.21
2022-09-25T07:02:23.681Z,87.44
2022-09-25T07:04:53.058Z,86.85
2022-09-25T07:07:24.037Z,85.35
2022-09-25T07:09:52.868Z,85.49
2022-09-25T07:12:23.000Z,84.15
2022-09-25T07:14:52.025Z,83.05
2022-09-25T07:17:20.951Z,82.74
2022-09-25T07:19:49.854Z,83.29
2022-09-25T07:22:18.466Z,84.21
2022-09-25T07:24:47.396Z,83.52
2022-09-25T07:27:16.305Z,84.91
2022-09-25T07:29:45.959Z,83.82
2022-09-25T07:32:14.734Z,84.64
2022-09-25T07:34:43.570Z,83.59
2022-09-25T07:37:13.226Z,83.25
2022-09-25T07:39:42.122Z,82.89
2022-09-25T07:42:12.371Z,82.83
2022-09-25T07:44:46.064Z,83.41
2022-09-25T07:47:17.959Z,84.66
2022-09-25T07:49:47.526Z,85.27
2022-09-25T07:52:17.186Z,83.30
2022-09-25T07:54:46.361Z,84.74
2022-09-25T07:57:15.882Z,83.90
2022-09-25T07:59:44.876Z,84.76
2022-09-25T08:02:13.970Z,83.62
2022-09-25T08:04:42.985Z,85.39
2022-09-25T08:07:13.934Z,85.62
2022-09-25T08:09:42.792Z,86.20
2022-09-25T08:12:14.776Z,84.47
2022-09-25T08:14:43.727Z,82.64
2022-09-25T08:17:13.024Z,83.41
2022-09-25T08:19:41.980Z,82.83
2022-09-25T08:22:11.049Z,83.85
2022-09-25T08:24:41.309Z,83.67
2022-09-25T08:27:10.369Z,83.15
2022-09-25T08:29:39.299Z,83.58
2022-09-25T08:32:08.593Z,85.18
2022-09-25T08:34:41.209Z,85.62
2022-09-25T08:37:11.566Z,85.11
2022-09-25T08:39:40.538Z,84.93
2022-09-25T08:42:20.532Z,85.00
2022-09-25T08:45:22.158Z,84.80
2022-09-25T08:48:14.127Z,86.57
2022-09-25T08:50:43.988Z,87.13
2022-09-25T08:56:30.415Z,88.65
2022-09-25T08:59:17.173Z,88.14
2022-09-25T09:01:54.369Z,87.99
2022-09-25T09:04:42.012Z,87.49
2022-09-25T09:07:27.173Z,87.68
2022-09-25T09:10:02.889Z,87.28
2022-09-25T09:12:37.739Z,87.75
2022-09-25T09:15:33.885Z,88.41
2022-09-25T09:18:10.298Z,88.49
2022-09-25T09:20:55.207Z,86.84
2022-09-25T09:23:26.426Z,86.89
2022-09-25T09:26:04.552Z,87.48
2022-09-25T09:28:45.464Z,87.32
2022-09-25T09:31:53.207Z,87.14
2022-09-25T09:35:07.733Z,86.54
2022-09-25T09:38:24.176Z,85.75
2022-09-25T09:40:56.641Z,85.78
2022-09-25T09:43:32.229Z,86.71
2022-09-25T09:46:06.631Z,87.07
2022-09-25T09:49:03.425Z,86.32
2022-09-25T09:51:59.996Z,85.53
2022-09-25T09:54:48.157Z,86.26
2022-09-25T09:57:22.517Z,85.56
2022-09-25T10:00:04.338Z,85.85
2022-09-25T10:02:45.487Z,85.28
2022-09-25T10:05:24.787Z,85.76
2022-09-25T10:07:55.091Z,87.14
2022-09-25T10:10:33.492Z,88.13
2022-09-25T10:13:08.026Z,86.70
2022-09-25T10:15:43.936Z,86.42
2022-09-25T10:18:14.521Z,87.25
2022-09-25T10:21:05.433Z,87.74
2022-09-25T10:23:41.370Z,87.28
2022-09-25T10:26:39.943Z,85.93
2022-09-25T10:29:11.729Z,87.09
2022-09-25T10:31:42.145Z,86.55
2022-09-25T10:34:14.664Z,87.05
2022-09-25T10:36:47.830Z,86.44
2022-09-25T10:39:44.115Z,86.62
2022-09-25T10:42:40.481Z,86.66
2022-09-25T10:45:24.659Z,86.55
2022-09-25T10:48:11.953Z,86.51
2022-09-25T10:50:41.985Z,86.76
2022-09-25T10:53:31.009Z,87.15
2022-09-25T10:56:15.401Z,88.57
2022-09-25T10:58:59.690Z,89.16
2022-09-25T11:01:37.556Z,90.03
2022-09-25T11:04:23.946Z,89.81
2022-09-25T11:06:59.206Z,89.85
2022-09-25T11:09:33.405Z,89.77
2022-09-25T11:12:11.092Z,89.54
2022-09-25T11:14:43.975Z,88.53
2022-09-25T11:17:34.632Z,89.61
2022-09-25T11:20:19.047Z,90.19
2022-09-25T11:23:05.659Z,89.83
2022-09-25T11:25:50.534Z,90.40
2022-09-25T11:28:28.253Z,89.37
2022-09-25T11:31:21.244Z,89.18
2022-09-25T11:34:13.461Z,88.87
2022-09-25T11:36:53.600Z,90.67
2022-09-25T11:39:53.477Z,89.45
2022-09-25T11:42:48.982Z,89.82
2022-09-25T11:45:45.191Z,89.71
2022-09-25T11:48:41.412Z,90.16
2022-09-25T11:51:37.615Z,89.70
2022-09-25T11:54:33.635Z,90.25
2022-09-25T11:57:15.027Z,90.07
2022-09-25T12:00:08.211Z,90.02
2022-09-25T12:03:10.598Z,90.21
2022-09-25T12:05:49.227Z,90.94
2022-09-25T12:08:43.201Z,91.31
2022-09-25T12:11:36.226Z,91.83
2022-09-25T12:14:30.253Z,91.39
2022-09-25T12:17:23.332Z,92.00
2022-09-25T12:20:01.492Z,91.94
2022-09-25T12:22:42.221Z,92.04
2022-09-25T12:25:32.565Z,91.80
2022-09-25T12:28:13.656Z,92.94
2022-09-25T12:31:13.153Z,93.88
2022-09-25T12:34:03.006Z,94.62
2022-09-25T12:36:53.995Z,94.63
2022-09-25T12:39:45.006Z,94.61
2022-09-25T12:42:30.636Z,94.80
2022-09-25T12:45:17.494Z,95.05
2022-09-25T12:47:47.443Z,94.98
2022-09-25T12:50:23.732Z,95.21
2022-09-25T12:53:22.012Z,95.66
2022-09-25T12:56:14.428Z,96.22
2022-09-25T12:59:04.448Z,96.56
2022-09-25T13:01:48.832Z,95.98
2022-09-25T13:05:05.493Z,96.63
2022-09-25T13:07:50.248Z,97.33
2022-09-25T13:10:31.260Z,98.00
2022-09-25T13:13:03.850Z,97.18
2022-09-25T13:15:37.203Z,97.33
2022-09-25T13:18:08.266Z,97.32
2022-09-25T13:20:38.800Z,97.80
2022-09-25T13:23:16.983Z,97.84
2022-09-25T13:26:00.825Z,97.81
2022-09-25T13:28:35.581Z,98.49
2022-09-25T13:31:24.468Z,98.98
2022-09-25T13:34:03.318Z,98.81
2022-09-25T13:36:37.568Z,100.00
2022-09-25T13:39:46.731Z,100.00
2022-09-25T13:42:43.312Z,100.00
2022-09-25T13:45:28.135Z,100.00
2022-09-25T13:48:06.001Z,100.00
2022-09-25T13:50:37.629Z,100.00
2022-09-25T13:53:18.662Z,100.00
2022-09-25T13:55:59.566Z,100.00
2022-09-25T13:58:33.281Z,100.00
2022-09-25T14:01:04.137Z,100.00
2022-09-25T14:03:40.804Z,100.00
2022-09-25T14:06:17.778Z,100.00
2022-09-25T14:08:48.791Z,100.00
2022-09-25T14:11:26.030Z,100.00
2022-09-25T14:13:57.884Z,100.00
2022-09-25T14:16:32.846Z,100.00
2022-09-25T14:19:07.223Z,100.00
2022-09-25T14:21:37.560Z,100.00
2022-09-25T14:24:24.384Z,100.00
2022-09-25T14:26:54.235Z,100.00
2022-09-25T14:29:28.428Z,100.00
2022-09-25T14:32:55.190Z,100.00
2022-09-25T14:35:49.154Z,100.00
2022-09-25T14:38:39.693Z,100.00
2022-09-25T14:41:33.722Z,100.00
2022-09-25T14:44:26.786Z,100.00
2022-09-25T14:47:00.257Z,100.00
2022-09-25T14:49:35.089Z,100.00
2022-09-25T14:52:08.237Z,100.00
2022-09-25T14:54:43.012Z,100.00
2022-09-25T14:57:12.980Z,100.00
2022-09-25T14:59:48.080Z,100.00
2022-09-25T15:02:34.915Z,100.00
2022-09-25T15:05:25.395Z,100.00
2022-09-25T15:07:56.415Z,100.00
2022-09-25T15:10:38.265Z,100.00
2022-09-25T15:13:19.786Z,100.00
2022-09-25T15:16:30.825Z,100.00
2022-09-25T15:19:02.325Z,100.00
2022-09-25T15:21:33.984Z,100.00
2022-09-25T15:24:18.792Z,100.00
2022-09-25T15:27:03.774Z,100.00
2022-09-25T15:29:37.303Z,100.00
2022-09-25T15:32:07.349Z,100.00
2022-09-25T15:34:37.387Z,100.00
2022-09-25T15:37:30.470Z,100.00
2022-09-25T15:40:12.846Z,100.00
2022-09-25T15:42:46.996Z,100.00
2022-09-25T15:45:38.689Z,100.00
2022-09-25T15:48:30.325Z,100.00
2022-09-25T15:51:21.329Z,100.00
2022-09-25T15:54:13.910Z,100.00
2022-09-25T15:56:56.313Z,100.00
2022-09-25T15:59:35.604Z,100.00
2022-09-25T16:02:41.364Z,100.00
2022-09-25T16:05:13.076Z,100.00
2022-09-25T16:07:42.370Z,100.00
2022-09-25T16:10:12.319Z,100.00
2022-09-25T16:12:52.545Z,100.00
2022-09-25T16:15:32.195Z,100.00
2022-09-25T16:18:26.434Z,100.00
2022-09-25T16:21:29.173Z,100.00
2022-09-25T16:24:19.506Z,100.00
2022-09-25T16:26:56.349Z,100.00
2022-09-25T16:29:46.127Z,100.00
2022-09-25T16:32:21.192Z,100.00
2022-09-25T16:35:01.564Z,100.00
2022-09-25T16:37:37.284Z,100.00
2022-09-25T16:40:21.158Z,100.00
2022-09-25T16:42:51.930Z,100.00
2022-09-25T16:45:30.911Z,100.00
2022-09-25T16:48:01.052Z,100.00
2022-09-25T16:50:34.579Z,100.00
2022-09-25T16:53:04.605Z,100.00
2022-09-25T16:55:35.412Z,100.00
2022-09-25T16:58:11.397Z,100.00
2022-09-25T17:00:40.862Z,100.00
2022-09-25T17:03:13.619Z,100.00
2022-09-25T17:05:43.246Z,100.00
2022-09-25T17:08:30.974Z,100.00
2022-09-25T17:11:01.446Z,100.00
2022-09-25T17:13:32.530Z,100.00
2022-09-25T17:16:02.100Z,100.00
2022-09-25T17:18:32.950Z,100.00
2022-09-25T17:21:05.702Z,100.00
2022-09-25T17:23:35.098Z,100.00
2022-09-25T17:26:08.835Z,100.00
2022-09-25T17:28:38.951Z,100.00
2022-09-25T17:31:08.306Z,100.00
2022-09-25T17:33:37.798Z,100.00
2022-09-25T17:36:08.932Z,100.00
2022-09-25T17:38:37.935Z,100.00
2022-09-25T17:41:34.648Z,100.00
2022-09-25T17:44:04.674Z,100.00
2022-09-25T17:46:37.297Z,100.00
2022-09-25T17:49:09.082Z,100.00
2022-09-25T17:51:39.020Z,100.00
2022-09-25T17:54:08.273Z,100.00
2022-09-25T17:56:39.082Z,100.00
2022-09-25T17:59:10.241Z,100.00
2022-09-25T18:01:40.205Z,100.00
2022-09-25T18:04:24.595Z,100.00
2022-09-25T18:06:54.007Z,100.00
2022-09-25T18:09:23.134Z,100.00
2022-09-25T18:11:53.812Z,100.00
2022-09-25T18:14:40.105Z,100.00
2022-09-25T18:17:10.807Z,100.00
2022-09-25T18:19:57.824Z,100.00
2022-09-25T18:22:27.758Z,100.00
2022-09-25T18:24:59.715Z,100.00
2022-09-25T18:27:32.158Z,100.00
2022-09-25T18:30:01.618Z,100.00
2022-09-25T18:32:32.344Z,100.00
2022-09-25T18:35:03.517Z,100.00
2022-09-25T18:37:32.583Z,100.00
2022-09-25T18:40:02.074Z,100.00
2022-09-25T18:42:31.092Z,100.00
2022-09-25T18:45:00.142Z,100.00
2022-09-25T18:47:29.545Z,100.00
2022-09-25T18:49:58.834Z,100.00
2022-09-25T18:52:27.880Z,100.00
2022-09-25T18:55:04.301Z,100.00
2022-09-25T18:57:40.445Z,100.00
2022-09-25T19:00:13.938Z,100.00
2022-09-25T19:02:44.520Z,100.00
2022-09-25T19:05:13.644Z,100.00
2022-09-25T19:07:42.574Z,100.00
2022-09-25T19:10:11.861Z,100.00
2022-09-25T19:12:40.989Z,100.00
2022-09-25T19:15:10.738Z,100.00
2022-09-25T19:17:40.212Z,100.00
2022-09-25T19:20:09.391Z,100.00
2022-09-25T19:22:38.556Z,100.00
2022-09-25T19:25:08.242Z,100.00
2022-09-25T19:27:37.743Z,100.00
2022-09-25T19:30:07.193Z,100.00
2022-09-25T19:32:35.910Z,100.00
2022-09-25T19:35:04.825Z,100.00
2022-09-25T19:37:34.462Z,100.00
2022-09-25T19:40:22.072Z,100.00
2022-09-25T19:42:51.579Z,100.00
2022-09-25T19:45:22.113Z,100.00
2022-09-25T19:47:51.856Z,100.00
2022-09-25T19:50:20.588Z,100.00
2022-09-25T19:52:51.208Z,100.00
2022-09-25T19:55:20.794Z,100.00
2022-09-25T19:57:49.509Z,100.00
2022-09-25T20:00:19.544Z,100.00
2022-09-25T20:02:49.686Z,100.00
2022-09-25T20:05:18.761Z,100.00
2022-09-25T20:07:47.740Z,100.00
2022-09-25T20:10:16.543Z,100.00
2022-09-25T20:12:45.707Z,100.00
2022-09-25T20:15:14.457Z,100.00
2022-09-25T20:17:43.345Z,100.00
2022-09-25T20:20:12.191Z,100.00
2022-09-25T20:22:40.925Z,100.00
2022-09-25T20:25:11.971Z,100.00
2022-09-25T20:27:40.848Z,100.00
2022-09-25T20:30:09.940Z,100.00
2022-09-25T20:32:39.655Z,100.00
2022-09-25T20:35:09.181Z,100.00
2022-09-25T20:37:38.500Z,100.00
2022-09-25T20:40:07.796Z,100.00
2022-09-25T20:42:36.946Z,100.00
2022-09-25T20:45:06.133Z,100.00
2022-09-25T20:47:35.403Z,100.00
2022-09-25T20:50:05.826Z,100.00
2022-09-25T20:52:35.839Z,100.00
2022-09-25T20:55:05.266Z,100.00
2022-09-25T20:57:34.492Z,100.00
2022-09-25T21:00:06.680Z,100.00
2022-09-25T21:02:36.177Z,100.00
2022-09-25T21:05:05.120Z,100.00
2022-09-25T21:07:34.183Z,100.00
2022-09-25T21:10:03.044Z,100.00
2022-09-25T21:12:31.704Z,100.00
2022-09-25T21:15:00.882Z,100.00
2022-09-25T21:17:29.675Z,100.00
2022-09-25T21:19:58.656Z,100.00
2022-09-25T21:22:27.969Z,100.00
2022-09-25T21:24:56.941Z,100.00
2022-09-25T21:27:25.716Z,100.00
2022-09-25T21:29:54.733Z,100.00
2022-09-25T21:32:23.588Z,100.00
2022-09-25T21:34:52.949Z,100.00
2022-09-25T21:37:21.749Z,100.00
2022-09-25T21:39:50.755Z,100.00
2022-09-25T21:42:19.604Z,100.00
2022-09-25T21:44:48.904Z,100.00
2022-09-25T21:47:19.008Z,100.00
2022-09-25T21:49:48.150Z,100.00
2022-09-25T21:52:17.289Z,100.00
2022-09-25T21:54:46.009Z,100.00
2022-09-25T21:57:15.031Z,100.00
2022-09-25T21:59:43.870Z,100.00
2022-09-25T22:02:12.841Z,100.00
2022-09-25T22:04:41.639Z,100.00
2022-09-25T22:07:11.109Z,100.00
2022-09-25T22:09:39.817Z,100.00
2022-09-25T22:12:08.735Z,100.00
2022-09-25T22:14:37.673Z,100.00
2022-09-25T22:17:06.548Z,100.00
2022-09-25T22:19:35.450Z,100.00
2022-09-25T22:22:04.348Z,100.00
2022-09-25T22:24:33.437Z,100.00
2022-09-25T22:27:02.419Z,100.00
2022-09-25T22:29:31.472Z,100.00
2022-09-25T22:32:00.474Z,100.00
2022-09-25T22:34:31.225Z,100.00
2022-09-25T22:37:00.577Z,100.00
2022-09-25T22:39:30.536Z,100.00
2022-09-25T22:42:00.094Z,100.00
2022-09-25T22:44:28.943Z,100.00
2022-09-25T22:46:58.153Z,100.00
2022-09-25T22:49:27.202Z,100.00
2022-09-25T22:51:56.370Z,100.00
2022-09-25T22:54:25.278Z,100.00
2022-09-25T22:56:54.280Z,100.00
2022-09-25T22:59:23.010Z,100.00
2022-09-25T23:01:55.101Z,100.00
2022-09-25T23:04:25.885Z,100.00
2022-09-25T23:06:55.683Z,100.00
2022-09-25T23:09:29.577Z,100.00
2022-09-25T23:11:59.225Z,100.00
2022-09-25T23:14:31.648Z,100.00
2022-09-25T23:17:04.209Z,100.00
2022-09-25T23:19:32.791Z,100.00
2022-09-25T23:22:01.859Z,100.00
2022-09-25T23:24:31.672Z,100.00
2022-09-25T23:27:00.509Z,100.00
2022-09-25T23:29:29.558Z,100.00
2022-09-25T23:31:58.267Z,100.00
2022-09-25T23:34:27.360Z,100.00
2022-09-25T23:36:56.318Z,100.00
2022-09-25T23:39:25.770Z,100.00
2022-09-25T23:41:54.750Z,100.00
2022-09-25T23:44:23.980Z,100.00
2022-09-25T23:46:52.776Z,100.00
2022-09-25T23:49:21.666Z,100.00
2022-09-25T23:51:50.911Z,100.00
2022-09-25T23:54:20.114Z,100.00
2022-09-25T23:56:49.067Z,100.00
2022-09-25T23:59:17.996Z,100.00
